createdAt,value
2023-04-10T00:00:59.522Z,7.68
2023-04-10T00:02:01.146Z,8.57
2023-04-10T00:03:02.983Z,8.55
2023-04-10T00:04:05.740Z,8.18
2023-04-10T00:05:08.068Z,8.20
2023-04-10T00:06:09.880Z,8.45
2023-04-10T00:07:11.518Z,8.32
2023-04-10T00:08:13.075Z,8.60
2023-04-10T00:09:15.164Z,8.10
2023-04-10T00:10:16.904Z,8.23
2023-04-10T00:11:18.406Z,7.70
2023-04-10T00:12:21.035Z,8.23
2023-04-10T00:13:22.724Z,7.93
2023-04-10T00:14:25.012Z,8.40
2023-04-10T00:15:26.768Z,8.15
2023-04-10T00:16:28.412Z,8.13
2023-04-10T00:17:30.257Z,7.93
2023-04-10T00:18:31.807Z,8.90
2023-04-10T00:19:33.823Z,8.90
2023-04-10T00:20:35.405Z,10.15
2023-04-10T00:21:36.904Z,8.27
2023-04-10T00:22:38.468Z,9.13
2023-04-10T00:23:40.052Z,8.43
2023-04-10T00:24:42.124Z,8.73
2023-04-10T00:25:43.654Z,9.48
2023-04-10T00:26:45.290Z,8.60
2023-04-10T00:27:46.886Z,8.80
2023-04-10T00:28:48.398Z,8.65
2023-04-10T00:29:50.342Z,8.88
2023-04-10T00:30:52.345Z,9.38
2023-04-10T00:31:53.882Z,8.63
2023-04-10T00:32:55.543Z,8.90
2023-04-10T00:33:57.215Z,9.00
2023-04-10T00:34:58.705Z,8.52
2023-04-10T00:36:00.320Z,9.55
2023-04-10T00:37:01.901Z,8.40
2023-04-10T00:38:03.493Z,8.25
2023-04-10T00:39:05.026Z,8.10
2023-04-10T00:40:07.197Z,9.38
2023-04-10T00:41:08.709Z,8.13
2023-04-10T00:42:11.081Z,8.88
2023-04-10T00:43:12.626Z,7.97
2023-04-10T00:44:14.154Z,8.65
2023-04-10T00:45:15.688Z,8.65
2023-04-10T00:46:17.371Z,8.65
2023-04-10T00:47:19.577Z,8.10
2023-04-10T00:48:21.228Z,8.57
2023-04-10T00:49:23.336Z,9.07
2023-04-10T00:50:24.877Z,8.55
2023-04-10T00:51:27.192Z,8.00
2023-04-10T00:52:28.786Z,8.50
2023-04-10T00:53:30.315Z,8.65
2023-04-10T00:54:32.490Z,8.23
2023-04-10T00:55:33.986Z,8.57
2023-04-10T00:56:35.539Z,8.90
2023-04-10T00:57:37.118Z,8.73
2023-04-10T00:58:39.215Z,8.88
2023-04-10T00:59:40.728Z,8.57
2023-04-10T01:00:42.288Z,9.05
2023-04-10T01:01:44.000Z,9.52
2023-04-10T01:02:46.231Z,9.18
2023-04-10T01:03:48.157Z,8.25
2023-04-10T01:04:49.764Z,8.35
2023-04-10T01:06:04.649Z,9.00
2023-04-10T01:07:28.673Z,8.15
2023-04-10T01:09:00.739Z,8.20
2023-04-10T01:10:09.635Z,7.75
2023-04-10T01:11:15.842Z,8.52
2023-04-10T01:12:35.836Z,8.05
2023-04-10T01:13:50.298Z,8.73
2023-04-10T01:15:06.682Z,7.68
2023-04-10T01:16:36.318Z,8.45
2023-04-10T01:17:46.297Z,7.68
2023-04-10T01:18:58.135Z,8.60
2023-04-10T01:20:21.139Z,8.73
2023-04-10T01:21:22.694Z,8.00
2023-04-10T01:22:24.228Z,7.68
2023-04-10T01:23:46.584Z,8.57
2023-04-10T01:24:57.645Z,8.05
2023-04-10T01:26:03.322Z,8.70
2023-04-10T01:27:10.015Z,8.13
2023-04-10T01:28:16.288Z,8.73
2023-04-10T01:29:20.800Z,7.85
2023-04-10T01:30:22.403Z,9.02
2023-04-10T01:32:04.858Z,8.02
2023-04-10T01:33:06.931Z,8.05
2023-04-10T01:34:10.119Z,9.10
2023-04-10T01:35:11.819Z,7.75
2023-04-10T01:36:13.407Z,8.38
2023-04-10T01:37:24.383Z,8.85
2023-04-10T01:38:27.113Z,9.15
2023-04-10T01:39:29.142Z,8.90
2023-04-10T01:40:30.858Z,8.43
2023-04-10T01:41:33.046Z,9.18
2023-04-10T01:42:36.154Z,8.38
2023-04-10T01:43:37.697Z,8.88
2023-04-10T01:44:41.942Z,8.95
2023-04-10T01:45:43.787Z,9.75
2023-04-10T01:46:45.614Z,9.68
2023-04-10T01:47:47.469Z,9.38
2023-04-10T01:48:49.224Z,9.32
2023-04-10T01:49:50.842Z,9.00
2023-04-10T01:50:52.376Z,8.35
2023-04-10T01:51:58.226Z,9.10
2023-04-10T01:52:59.756Z,8.18
2023-04-10T01:54:01.500Z,9.05
2023-04-10T01:55:03.602Z,9.13
2023-04-10T01:56:05.886Z,8.80
2023-04-10T01:57:08.086Z,8.38
2023-04-10T01:58:09.754Z,9.23
2023-04-10T01:59:11.676Z,8.95
2023-04-10T02:00:13.550Z,8.98
2023-04-10T02:01:28.929Z,9.32
2023-04-10T02:02:32.917Z,8.63
2023-04-10T02:03:34.868Z,8.68
2023-04-10T02:04:36.588Z,8.63
2023-04-10T02:05:54.093Z,9.88
2023-04-10T02:07:11.128Z,8.85
2023-04-10T02:08:14.534Z,7.78
2023-04-10T02:09:19.273Z,8.43
2023-04-10T02:10:30.685Z,8.70
2023-04-10T02:11:39.087Z,9.23
2023-04-10T02:12:55.598Z,8.35
2023-04-10T02:13:59.443Z,7.88
2023-04-10T02:15:01.900Z,8.88
2023-04-10T02:16:05.163Z,10.15
2023-04-10T02:17:07.144Z,10.85
2023-04-10T02:18:09.572Z,9.65
2023-04-10T02:19:11.196Z,9.13
2023-04-10T02:20:12.710Z,9.10
2023-04-10T02:21:14.309Z,8.43
2023-04-10T02:22:16.947Z,7.60
2023-04-10T02:23:20.501Z,8.65
2023-04-10T02:24:22.549Z,8.88
2023-04-10T02:25:24.073Z,8.68
2023-04-10T02:26:25.937Z,8.00
2023-04-10T02:27:31.015Z,8.82
2023-04-10T02:28:32.545Z,8.23
2023-04-10T02:29:34.633Z,9.07
2023-04-10T02:30:36.262Z,8.73
2023-04-10T02:31:37.975Z,8.50
2023-04-10T02:32:39.549Z,8.65
2023-04-10T02:33:41.198Z,8.05
2023-04-10T02:34:43.827Z,8.73
2023-04-10T02:35:45.439Z,8.73
2023-04-10T02:36:46.992Z,8.68
2023-04-10T02:37:50.692Z,7.90
2023-04-10T02:38:52.285Z,8.95
2023-04-10T02:39:57.069Z,9.23
2023-04-10T02:40:58.600Z,9.15
2023-04-10T02:42:01.184Z,8.55
2023-04-10T02:43:02.948Z,8.35
2023-04-10T02:44:04.613Z,8.93
2023-04-10T02:45:06.813Z,8.75
2023-04-10T02:46:08.405Z,9.52
2023-04-10T02:47:10.458Z,8.70
2023-04-10T02:48:12.117Z,8.95
2023-04-10T02:49:13.991Z,8.55
2023-04-10T02:50:17.428Z,8.52
2023-04-10T02:51:19.655Z,8.02
2023-04-10T02:52:21.483Z,8.57
2023-04-10T02:53:23.177Z,9.50
2023-04-10T02:54:24.755Z,9.10
2023-04-10T02:55:26.239Z,8.32
2023-04-10T02:56:27.824Z,8.35
2023-04-10T02:57:29.370Z,8.65
2023-04-10T02:58:31.565Z,9.25
2023-04-10T02:59:33.243Z,8.77
2023-04-10T03:00:34.834Z,8.82
2023-04-10T03:01:36.431Z,8.85
2023-04-10T03:02:38.093Z,9.25
2023-04-10T03:03:39.892Z,9.02
2023-04-10T03:04:41.604Z,8.73
2023-04-10T03:05:43.661Z,9.25
2023-04-10T03:06:45.537Z,8.48
2023-04-10T03:07:47.513Z,8.68
2023-04-10T03:08:49.507Z,8.73
2023-04-10T03:09:51.373Z,8.63
2023-04-10T03:10:53.370Z,9.50
2023-04-10T03:11:54.973Z,8.80
2023-04-10T03:12:56.514Z,9.15
2023-04-10T03:14:01.118Z,9.20
2023-04-10T03:15:02.637Z,8.10
2023-04-10T03:16:04.382Z,9.40
2023-04-10T03:17:05.895Z,8.73
2023-04-10T03:18:07.527Z,9.25
2023-04-10T03:19:09.110Z,9.07
2023-04-10T03:20:11.444Z,8.98
2023-04-10T03:21:13.021Z,8.63
2023-04-10T03:22:14.583Z,8.40
2023-04-10T03:23:16.132Z,9.20
2023-04-10T03:24:17.665Z,8.40
2023-04-10T03:25:19.199Z,9.63
2023-04-10T03:26:21.203Z,9.00
2023-04-10T03:27:23.324Z,8.88
2023-04-10T03:28:24.863Z,9.15
2023-04-10T03:29:26.403Z,8.50
2023-04-10T03:30:27.948Z,8.52
2023-04-10T03:31:29.758Z,9.13
2023-04-10T03:32:31.384Z,8.05
2023-04-10T03:33:33.110Z,8.38
2023-04-10T03:34:34.701Z,8.55
2023-04-10T03:35:36.385Z,9.27
2023-04-10T03:36:37.945Z,8.18
2023-04-10T03:37:39.509Z,9.07
2023-04-10T03:38:41.270Z,9.27
2023-04-10T03:39:42.827Z,8.43
2023-04-10T03:40:44.334Z,9.20
2023-04-10T03:41:45.993Z,8.52
2023-04-10T03:42:47.484Z,8.60
2023-04-10T03:43:49.007Z,8.43
2023-04-10T03:44:50.604Z,8.88
2023-04-10T03:45:52.154Z,8.63
2023-04-10T03:46:53.722Z,9.10
2023-04-10T03:47:55.372Z,8.02
2023-04-10T03:48:56.946Z,9.00
2023-04-10T03:50:01.343Z,9.65
2023-04-10T03:51:02.971Z,8.68
2023-04-10T03:52:04.517Z,8.55
2023-04-10T03:53:06.633Z,8.27
2023-04-10T03:54:08.172Z,8.45
2023-04-10T03:55:09.942Z,8.85
2023-04-10T03:56:11.491Z,8.77
2023-04-10T03:57:13.079Z,8.80
2023-04-10T03:58:15.297Z,8.88
2023-04-10T03:59:16.838Z,8.05
2023-04-10T04:00:18.612Z,8.57
2023-04-10T04:01:20.645Z,8.20
2023-04-10T04:02:22.834Z,8.50
2023-04-10T04:03:24.592Z,8.80
2023-04-10T04:04:26.580Z,7.95
2023-04-10T04:05:28.161Z,8.73
2023-04-10T04:06:29.700Z,8.10
2023-04-10T04:07:31.197Z,8.25
2023-04-10T04:08:32.722Z,7.93
2023-04-10T04:09:34.293Z,8.95
2023-04-10T04:10:35.795Z,8.70
2023-04-10T04:11:38.554Z,8.65
2023-04-10T04:12:40.105Z,9.40
2023-04-10T04:13:41.656Z,8.30
2023-04-10T04:14:44.724Z,9.30
2023-04-10T04:16:49.770Z,8.45
2023-04-10T04:17:51.365Z,9.48
2023-04-10T04:18:52.927Z,9.15
2023-04-10T04:19:54.463Z,9.13
2023-04-10T04:20:56.216Z,8.63
2023-04-10T04:21:57.936Z,8.93
2023-04-10T04:22:59.442Z,8.60
2023-04-10T04:24:01.556Z,8.55
2023-04-10T04:25:04.597Z,9.88
2023-04-10T04:28:09.828Z,7.72
2023-04-10T04:29:11.422Z,8.18
2023-04-10T04:30:13.474Z,8.93
2023-04-10T04:31:15.016Z,9.00
2023-04-10T04:32:16.755Z,9.50
2023-04-10T04:33:21.029Z,9.00
2023-04-10T04:34:24.568Z,9.13
2023-04-10T04:35:26.080Z,9.15
2023-04-10T04:36:28.455Z,8.25
2023-04-10T04:37:29.975Z,8.90
2023-04-10T04:38:31.520Z,9.20
2023-04-10T04:39:33.035Z,9.18
2023-04-10T04:40:35.005Z,8.95
2023-04-10T04:41:36.558Z,9.38
2023-04-10T04:42:38.071Z,9.02
2023-04-10T04:43:39.630Z,8.05
2023-04-10T04:44:41.160Z,8.95
2023-04-10T04:45:42.681Z,8.90
2023-04-10T04:46:44.777Z,9.05
2023-04-10T04:47:46.429Z,9.05
2023-04-10T04:48:47.931Z,8.75
2023-04-10T04:49:49.441Z,9.25
2023-04-10T04:50:50.972Z,8.95
2023-04-10T04:51:52.536Z,10.27
2023-04-10T04:52:54.042Z,9.52
2023-04-10T04:53:55.779Z,9.57
2023-04-10T04:54:57.586Z,9.82
2023-04-10T04:55:59.168Z,9.18
2023-04-10T04:57:01.676Z,8.57
2023-04-10T04:58:03.661Z,9.55
2023-04-10T04:59:05.218Z,9.27
2023-04-10T05:00:07.659Z,9.07
2023-04-10T05:01:09.432Z,9.50
2023-04-10T05:02:11.267Z,9.65
2023-04-10T05:03:13.058Z,9.80
2023-04-10T05:04:14.909Z,9.27
2023-04-10T05:05:16.834Z,9.35
2023-04-10T05:06:18.918Z,10.55
2023-04-10T05:07:20.456Z,9.27
2023-04-10T05:08:21.973Z,9.82
2023-04-10T05:09:23.500Z,9.73
2023-04-10T05:10:25.055Z,9.30
2023-04-10T05:11:26.604Z,9.60
2023-04-10T05:12:28.582Z,8.95
2023-04-10T05:13:30.192Z,9.35
2023-04-10T05:14:31.826Z,8.50
2023-04-10T05:15:33.330Z,9.73
2023-04-10T05:16:34.896Z,10.40
2023-04-10T05:17:36.550Z,8.93
2023-04-10T05:18:38.215Z,9.70
2023-04-10T05:19:39.848Z,10.10
2023-04-10T05:20:41.601Z,9.82
2023-04-10T05:21:43.296Z,9.18
2023-04-10T05:22:44.940Z,9.25
2023-04-10T05:23:46.483Z,10.02
2023-04-10T05:24:47.966Z,9.30
2023-04-10T05:25:49.496Z,9.20
2023-04-10T05:26:50.989Z,9.15
2023-04-10T05:27:52.598Z,10.52
2023-04-10T05:28:54.284Z,10.10
2023-04-10T05:29:56.029Z,9.02
2023-04-10T05:30:57.627Z,9.68
2023-04-10T05:31:59.137Z,10.15
2023-04-10T05:33:00.638Z,9.95
2023-04-10T05:34:02.229Z,10.05
2023-04-10T05:35:03.849Z,9.98
2023-04-10T05:36:06.386Z,9.80
2023-04-10T05:37:08.949Z,9.82
2023-04-10T05:38:10.454Z,9.48
2023-04-10T05:39:12.033Z,9.98
2023-04-10T05:40:13.520Z,9.23
2023-04-10T05:41:15.161Z,9.93
2023-04-10T05:42:16.912Z,9.95
2023-04-10T05:43:18.631Z,9.52
2023-04-10T05:44:20.170Z,9.73
2023-04-10T05:45:21.678Z,8.80
2023-04-10T05:46:23.260Z,9.63
2023-04-10T05:47:24.841Z,9.73
2023-04-10T05:48:26.358Z,9.18
2023-04-10T05:49:27.856Z,9.93
2023-04-10T05:50:30.564Z,9.25
2023-04-10T05:51:32.203Z,8.77
2023-04-10T05:52:33.679Z,9.57
2023-04-10T05:53:35.238Z,9.40
2023-04-10T05:54:36.838Z,9.25
2023-04-10T05:55:38.371Z,10.50
2023-04-10T05:56:39.869Z,9.10
2023-04-10T05:57:41.345Z,9.65
2023-04-10T05:58:42.840Z,9.20
2023-04-10T05:59:44.323Z,9.07
2023-04-10T06:00:45.782Z,9.27
2023-04-10T06:01:47.413Z,9.63
2023-04-10T06:02:49.536Z,9.75
2023-04-10T06:03:51.337Z,9.07
2023-04-10T06:04:53.158Z,9.40
2023-04-10T06:05:54.846Z,9.88
2023-04-10T06:06:56.485Z,8.70
2023-04-10T06:07:58.554Z,9.85
2023-04-10T06:09:00.171Z,10.60
2023-04-10T06:10:02.442Z,9.68
2023-04-10T06:11:04.070Z,10.57
2023-04-10T06:12:05.954Z,10.27
2023-04-10T06:13:09.806Z,9.18
2023-04-10T06:14:12.611Z,10.65
2023-04-10T06:15:14.082Z,10.15
2023-04-10T06:16:16.489Z,10.02
2023-04-10T06:17:18.140Z,9.93
2023-04-10T06:18:19.659Z,8.90
2023-04-10T06:19:21.141Z,10.27
2023-04-10T06:20:22.740Z,11.15
2023-04-10T06:21:24.461Z,10.77
2023-04-10T06:22:26.790Z,11.07
2023-04-10T06:23:28.660Z,10.10
2023-04-10T06:24:30.881Z,10.07
2023-04-10T06:25:32.427Z,10.35
2023-04-10T06:26:33.918Z,10.05
2023-04-10T06:27:35.952Z,10.32
2023-04-10T06:28:37.475Z,10.25
2023-04-10T06:29:38.969Z,10.30
2023-04-10T06:30:40.732Z,9.90
2023-04-10T06:31:42.245Z,10.05
2023-04-10T06:32:43.816Z,10.23
2023-04-10T06:33:45.481Z,10.80
2023-04-10T06:34:47.311Z,9.75
2023-04-10T06:35:49.057Z,10.25
2023-04-10T06:36:50.722Z,9.75
2023-04-10T06:37:52.240Z,9.95
2023-04-10T06:38:53.887Z,9.88
2023-04-10T06:40:09.183Z,9.52
2023-04-10T06:41:11.548Z,10.27
2023-04-10T06:42:13.097Z,10.73
2023-04-10T06:43:14.684Z,10.55
2023-04-10T06:44:16.260Z,10.10
2023-04-10T06:45:17.810Z,9.52
2023-04-10T06:46:19.435Z,10.27
2023-04-10T06:47:21.571Z,9.63
2023-04-10T06:48:23.092Z,10.05
2023-04-10T06:49:24.608Z,10.00
2023-04-10T06:50:26.340Z,10.70
2023-04-10T06:51:27.886Z,10.75
2023-04-10T06:52:29.387Z,9.77
2023-04-10T06:53:30.996Z,9.75
2023-04-10T06:54:32.612Z,10.13
2023-04-10T06:55:34.202Z,9.90
2023-04-10T06:56:35.729Z,11.45
2023-04-10T06:57:37.340Z,10.52
2023-04-10T06:58:38.848Z,10.07
2023-04-10T06:59:40.397Z,10.02
2023-04-10T07:00:42.138Z,9.77
2023-04-10T07:01:43.736Z,9.45
2023-04-10T07:02:46.001Z,10.85
2023-04-10T07:03:48.008Z,10.52
2023-04-10T07:04:50.054Z,10.35
2023-04-10T07:05:51.605Z,9.77
2023-04-10T07:06:53.711Z,10.55
2023-04-10T07:07:55.608Z,9.55
2023-04-10T07:08:57.140Z,10.15
2023-04-10T07:09:58.629Z,10.45
2023-04-10T07:11:00.315Z,9.68
2023-04-10T07:12:01.848Z,10.05
2023-04-10T07:13:03.696Z,10.10
2023-04-10T07:14:05.210Z,10.15
2023-04-10T07:15:08.053Z,10.07
2023-04-10T07:16:10.668Z,9.45
2023-04-10T07:17:12.216Z,8.77
2023-04-10T07:18:13.798Z,9.48
2023-04-10T07:19:15.639Z,10.20
2023-04-10T07:20:17.211Z,9.48
2023-04-10T07:21:18.733Z,9.65
2023-04-10T07:22:20.311Z,9.30
2023-04-10T07:23:22.641Z,8.85
2023-04-10T07:24:24.318Z,9.10
2023-04-10T07:25:25.914Z,8.90
2023-04-10T07:26:27.698Z,8.50
2023-04-10T07:27:29.193Z,8.73
2023-04-10T07:28:30.741Z,9.18
2023-04-10T07:29:32.246Z,9.93
2023-04-10T07:30:33.753Z,9.00
2023-04-10T07:31:35.446Z,9.15
2023-04-10T07:32:38.717Z,8.38
2023-04-10T07:33:41.072Z,7.97
2023-04-10T07:34:42.745Z,8.15
2023-04-10T07:35:44.328Z,8.57
2023-04-10T07:36:47.168Z,7.60
2023-04-10T07:37:51.952Z,8.48
2023-04-10T07:38:53.780Z,8.20
2023-04-10T07:39:55.548Z,8.23
2023-04-10T07:40:57.812Z,7.80
2023-04-10T07:41:59.762Z,7.95
2023-04-10T07:43:01.330Z,8.00
2023-04-10T07:44:02.844Z,8.40
2023-04-10T07:45:04.670Z,7.57
2023-04-10T07:46:06.938Z,7.88
2023-04-10T07:47:08.445Z,7.38
2023-04-10T07:48:10.042Z,8.32
2023-04-10T07:49:12.175Z,7.80
2023-04-10T07:50:13.713Z,8.05
2023-04-10T07:51:15.452Z,7.45
2023-04-10T07:52:17.031Z,7.60
2023-04-10T07:53:18.569Z,7.60
2023-04-10T07:54:20.122Z,7.80
2023-04-10T07:55:21.714Z,7.38
2023-04-10T07:56:23.412Z,8.10
2023-04-10T07:57:25.428Z,8.82
2023-04-10T07:58:26.979Z,8.05
2023-04-10T07:59:28.854Z,8.43
2023-04-10T08:00:30.394Z,7.82
2023-04-10T08:01:31.999Z,7.97
2023-04-10T08:02:33.634Z,7.78
2023-04-10T08:03:42.641Z,8.30
2023-04-10T08:05:46.119Z,7.47
2023-04-10T08:06:47.701Z,8.18
2023-04-10T08:07:49.303Z,7.60
2023-04-10T08:08:52.534Z,7.85
2023-04-10T08:09:54.378Z,7.10
2023-04-10T08:10:55.972Z,7.63
2023-04-10T08:11:58.067Z,7.18
2023-04-10T08:12:59.596Z,6.75
2023-04-10T08:14:02.189Z,6.95
2023-04-10T08:15:03.874Z,6.55
2023-04-10T08:16:05.907Z,7.50
2023-04-10T08:17:14.422Z,7.13
2023-04-10T08:18:16.027Z,7.07
2023-04-10T08:19:17.581Z,7.50
2023-04-10T08:20:19.646Z,7.68
2023-04-10T08:21:21.557Z,8.07
2023-04-10T08:22:23.070Z,7.65
2023-04-10T08:23:24.704Z,6.65
2023-04-10T08:24:26.241Z,7.55
2023-04-10T08:25:27.724Z,6.93
2023-04-10T08:26:29.408Z,7.88
2023-04-10T08:27:30.982Z,7.55
2023-04-10T08:28:32.595Z,7.47
2023-04-10T08:29:34.136Z,8.18
2023-04-10T08:30:36.214Z,7.97
2023-04-10T08:31:37.807Z,7.57
2023-04-10T08:32:39.664Z,7.20
2023-04-10T08:33:41.571Z,7.28
2023-04-10T08:34:43.104Z,6.80
2023-04-10T08:35:48.096Z,7.00
2023-04-10T08:36:49.654Z,6.78
2023-04-10T08:38:07.675Z,6.18
2023-04-10T08:39:12.741Z,7.35
2023-04-10T08:40:14.263Z,7.22
2023-04-10T08:41:17.276Z,7.07
2023-04-10T08:42:19.157Z,7.70
2023-04-10T08:43:20.947Z,8.35
2023-04-10T08:44:22.484Z,7.28
2023-04-10T08:45:24.590Z,9.27
2023-04-10T08:46:26.569Z,7.50
2023-04-10T08:47:28.217Z,7.55
2023-04-10T08:48:39.854Z,7.30
2023-04-10T08:49:46.567Z,6.90
2023-04-10T08:50:48.067Z,7.63
2023-04-10T08:51:57.903Z,7.65
2023-04-10T08:53:00.303Z,7.38
2023-04-10T08:54:09.878Z,7.30
2023-04-10T08:55:12.192Z,7.65
2023-04-10T08:56:16.733Z,7.30
2023-04-10T08:57:20.494Z,6.88
2023-04-10T08:58:22.422Z,6.80
2023-04-10T08:59:23.909Z,7.00
2023-04-10T09:00:25.392Z,7.90
2023-04-10T09:01:26.937Z,6.85
2023-04-10T09:02:28.800Z,7.60
2023-04-10T09:03:30.769Z,6.93
2023-04-10T09:04:33.510Z,7.05
2023-04-10T09:05:35.483Z,6.82
2023-04-10T09:06:37.609Z,7.15
2023-04-10T09:07:39.254Z,7.10
2023-04-10T09:08:40.779Z,7.10
2023-04-10T09:09:43.238Z,7.60
2023-04-10T09:10:44.815Z,7.55
2023-04-10T09:11:51.998Z,7.63
2023-04-10T09:12:53.526Z,6.55
2023-04-10T09:13:55.167Z,6.57
2023-04-10T09:14:56.902Z,7.22
2023-04-10T09:15:59.291Z,8.00
2023-04-10T09:17:16.870Z,6.82
2023-04-10T09:18:18.425Z,6.45
2023-04-10T09:19:40.466Z,6.50
2023-04-10T09:20:42.063Z,6.57
2023-04-10T09:21:50.072Z,6.72
2023-04-10T09:22:51.763Z,6.60
2023-04-10T09:24:00.061Z,6.40
2023-04-10T09:25:03.248Z,6.07
2023-04-10T09:26:27.287Z,6.60
2023-04-10T09:27:35.871Z,6.38
2023-04-10T09:28:58.998Z,6.90
2023-04-10T09:30:00.804Z,6.45
2023-04-10T09:31:02.508Z,6.25
2023-04-10T09:32:04.136Z,6.47
2023-04-10T09:33:25.123Z,6.50
2023-04-10T09:34:26.672Z,6.30
2023-04-10T09:35:38.311Z,5.95
2023-04-10T09:36:43.586Z,6.10
2023-04-10T09:37:45.862Z,6.03
2023-04-10T09:38:51.497Z,5.97
2023-04-10T09:39:53.062Z,5.35
2023-04-10T09:40:54.950Z,5.75
2023-04-10T09:41:56.461Z,5.75
2023-04-10T09:42:58.089Z,6.45
2023-04-10T09:44:07.209Z,6.13
2023-04-10T09:45:08.864Z,5.78
2023-04-10T09:46:10.407Z,5.97
2023-04-10T09:47:14.758Z,5.78
2023-04-10T09:48:16.497Z,5.20
2023-04-10T09:49:18.274Z,5.95
2023-04-10T09:50:19.791Z,5.70
2023-04-10T09:51:34.732Z,5.93
2023-04-10T09:52:38.271Z,5.60
2023-04-10T09:53:49.747Z,5.90
2023-04-10T09:54:52.170Z,5.35
2023-04-10T09:55:53.702Z,6.28
2023-04-10T09:56:55.368Z,6.25
2023-04-10T09:57:57.567Z,5.38
2023-04-10T09:59:00.890Z,5.45
2023-04-10T10:00:08.222Z,5.90
2023-04-10T10:01:09.769Z,5.90
2023-04-10T10:02:11.652Z,5.38
2023-04-10T10:03:15.053Z,5.53
2023-04-10T10:04:17.396Z,5.38
2023-04-10T10:05:23.802Z,5.70
2023-04-10T10:06:26.092Z,5.47
2023-04-10T10:07:27.580Z,5.30
2023-04-10T10:08:29.117Z,5.00
2023-04-10T10:09:30.978Z,5.25
2023-04-10T10:10:32.733Z,5.30
2023-04-10T10:11:35.418Z,5.60
2023-04-10T10:12:42.746Z,5.80
2023-04-10T10:13:44.116Z,5.68
2023-04-10T10:14:57.530Z,5.57
2023-04-10T10:16:09.905Z,5.43
2023-04-10T10:17:12.305Z,5.50
2023-04-10T10:18:18.124Z,5.50
2023-04-10T10:19:24.660Z,5.47
2023-04-10T10:20:26.536Z,5.30
2023-04-10T10:21:28.761Z,5.30
2023-04-10T10:22:30.684Z,5.70
2023-04-10T10:23:32.230Z,4.55
2023-04-10T10:24:33.958Z,4.78
2023-04-10T10:25:35.720Z,4.95
2023-04-10T10:26:38.959Z,4.80
2023-04-10T10:27:40.750Z,5.03
2023-04-10T10:28:42.337Z,5.32
2023-04-10T10:29:44.372Z,4.85
2023-04-10T10:30:46.403Z,4.90
2023-04-10T10:31:48.254Z,4.70
2023-04-10T10:32:49.910Z,4.55
2023-04-10T10:33:52.730Z,4.22
2023-04-10T10:34:54.417Z,5.38
2023-04-10T10:36:00.166Z,5.03
2023-04-10T10:37:02.040Z,4.68
2023-04-10T10:38:04.378Z,4.55
2023-04-10T10:39:12.344Z,4.43
2023-04-10T10:40:32.562Z,4.22
2023-04-10T10:42:14.964Z,4.53
2023-04-10T10:43:28.131Z,4.30
2023-04-10T10:45:10.367Z,4.05
2023-04-10T10:46:24.846Z,3.97
2023-04-10T10:47:30.080Z,4.43
2023-04-10T10:48:31.670Z,3.65
2023-04-10T10:49:55.414Z,4.28
2023-04-10T10:50:59.569Z,4.05
2023-04-10T10:52:01.222Z,4.32
2023-04-10T10:53:03.320Z,4.65
2023-04-10T10:54:05.215Z,4.35
2023-04-10T10:55:21.775Z,4.43
2023-04-10T10:56:23.285Z,3.72
2023-04-10T10:57:46.987Z,3.80
2023-04-10T10:58:58.662Z,4.68
2023-04-10T11:00:00.226Z,4.20
2023-04-10T11:01:06.789Z,4.22
2023-04-10T11:02:19.469Z,4.05
2023-04-10T11:03:21.071Z,4.13
2023-04-10T11:04:45.719Z,3.63
2023-04-10T11:05:55.250Z,3.75
2023-04-10T11:06:56.878Z,4.07
2023-04-10T11:07:58.331Z,4.13
2023-04-10T11:08:59.871Z,3.92
2023-04-10T11:10:02.241Z,4.05
2023-04-10T11:11:07.170Z,4.07
2023-04-10T11:12:08.694Z,3.95
2023-04-10T11:13:19.498Z,4.38
2023-04-10T11:14:21.526Z,4.15
2023-04-10T11:15:23.315Z,3.97
2023-04-10T11:16:44.375Z,4.07
2023-04-10T11:17:54.025Z,4.10
2023-04-10T11:19:06.253Z,3.60
2023-04-10T11:20:14.263Z,4.03
2023-04-10T11:21:19.388Z,4.07
2023-04-10T11:22:21.034Z,3.92
2023-04-10T11:23:22.564Z,3.55
2023-04-10T11:24:24.127Z,3.25
2023-04-10T11:25:51.290Z,3.38
2023-04-10T11:26:52.949Z,3.13
2023-04-10T11:27:54.674Z,4.00
2023-04-10T11:28:56.452Z,3.67
2023-04-10T11:29:58.344Z,3.67
2023-04-10T11:31:19.848Z,3.63
2023-04-10T11:32:21.666Z,3.50
2023-04-10T11:33:23.262Z,4.07
2023-04-10T11:34:24.921Z,3.42
2023-04-10T11:35:27.701Z,3.75
2023-04-10T11:36:29.484Z,3.90
2023-04-10T11:37:31.054Z,3.88
2023-04-10T11:38:32.822Z,3.80
2023-04-10T11:39:34.362Z,3.75
2023-04-10T11:40:36.038Z,3.60
2023-04-10T11:41:39.194Z,3.90
2023-04-10T11:42:40.735Z,3.70
2023-04-10T11:43:42.732Z,3.63
2023-04-10T11:44:44.335Z,3.50
2023-04-10T11:45:45.875Z,3.38
2023-04-10T11:46:48.354Z,3.40
2023-04-10T11:47:53.503Z,3.40
2023-04-10T11:49:01.902Z,3.90
2023-04-10T11:50:03.609Z,3.58
2023-04-10T11:51:09.350Z,3.38
2023-04-10T11:52:11.068Z,3.58
2023-04-10T11:53:19.982Z,3.80
2023-04-10T11:54:25.464Z,3.60
2023-04-10T11:55:38.837Z,3.58
2023-04-10T11:57:07.685Z,3.65
2023-04-10T11:58:23.007Z,3.80
2023-04-10T11:59:25.120Z,4.03
2023-04-10T12:00:26.693Z,3.42
2023-04-10T12:01:28.278Z,3.75
2023-04-10T12:02:29.957Z,3.42
2023-04-10T12:03:36.262Z,3.63
2023-04-10T12:04:38.109Z,3.50
2023-04-10T12:05:47.181Z,3.30
2023-04-10T12:06:52.374Z,3.35
2023-04-10T12:07:53.879Z,4.07
2023-04-10T12:08:55.991Z,3.40
2023-04-10T12:09:58.260Z,3.35
2023-04-10T12:11:00.376Z,3.63
2023-04-10T12:12:03.995Z,3.67
2023-04-10T12:13:06.221Z,3.80
2023-04-10T12:14:08.177Z,3.50
2023-04-10T12:15:31.054Z,3.53
2023-04-10T12:16:33.091Z,3.42
2023-04-10T12:17:34.704Z,3.80
2023-04-10T12:18:36.322Z,3.40
2023-04-10T12:19:38.343Z,3.35
2023-04-10T12:20:39.855Z,3.40
2023-04-10T12:21:42.906Z,3.92
2023-04-10T12:22:45.985Z,3.40
2023-04-10T12:23:47.478Z,3.55
2023-04-10T12:24:53.341Z,3.53
2023-04-10T12:26:11.141Z,3.10
2023-04-10T12:27:19.211Z,3.00
2023-04-10T12:28:21.408Z,3.78
2023-04-10T12:29:27.744Z,4.00
2023-04-10T12:30:29.285Z,3.22
2023-04-10T12:31:32.291Z,3.20
2023-04-10T12:32:34.702Z,3.25
2023-04-10T12:33:36.294Z,3.40
2023-04-10T12:34:37.804Z,3.33
2023-04-10T12:35:40.161Z,3.85
2023-04-10T12:36:44.049Z,3.40
2023-04-10T12:37:52.382Z,3.40
2023-04-10T12:38:54.150Z,3.10
2023-04-10T12:40:06.667Z,3.45
2023-04-10T12:41:09.667Z,3.38
2023-04-10T12:42:15.120Z,3.08
2023-04-10T12:43:39.732Z,3.10
2023-04-10T12:44:51.735Z,3.10
2023-04-10T12:45:53.220Z,2.88
2023-04-10T12:46:59.520Z,3.17
2023-04-10T12:48:01.152Z,3.60
2023-04-10T12:49:16.377Z,2.83
2023-04-10T12:50:18.734Z,2.72
2023-04-10T12:51:20.381Z,3.13
2023-04-10T12:52:24.827Z,3.20
2023-04-10T12:53:26.429Z,3.22
2023-04-10T12:54:29.275Z,3.22
2023-04-10T12:56:42.751Z,2.83
2023-04-10T12:57:46.128Z,3.00
2023-04-10T12:58:47.890Z,2.90
2023-04-10T12:59:50.152Z,2.78
2023-04-10T13:00:52.575Z,2.85
2023-04-10T13:01:54.606Z,2.95
2023-04-10T13:02:56.897Z,3.10
2023-04-10T13:03:58.681Z,3.13
2023-04-10T13:05:18.436Z,3.00
2023-04-10T13:06:19.999Z,2.42
2023-04-10T13:07:21.644Z,3.08
2023-04-10T13:08:23.266Z,2.80
2023-04-10T13:09:24.805Z,3.03
2023-04-10T13:10:28.745Z,3.00
2023-04-10T13:11:30.548Z,3.35
2023-04-10T13:12:32.689Z,2.72
2023-04-10T13:13:34.365Z,3.13
2023-04-10T13:14:36.665Z,2.90
2023-04-10T13:15:38.990Z,2.92
2023-04-10T13:16:40.844Z,3.45
2023-04-10T13:17:43.112Z,3.35
2023-04-10T13:18:44.674Z,3.17
2023-04-10T13:19:46.201Z,3.03
2023-04-10T13:20:50.750Z,3.63
2023-04-10T13:21:52.511Z,3.25
2023-04-10T13:22:54.052Z,3.10
2023-04-10T13:23:56.544Z,3.13
2023-04-10T13:24:58.183Z,3.22
2023-04-10T13:25:59.899Z,3.35
2023-04-10T13:27:01.796Z,3.30
2023-04-10T13:28:09.899Z,3.60
2023-04-10T13:29:12.455Z,3.63
2023-04-10T13:30:14.024Z,3.15
2023-04-10T13:31:16.064Z,3.13
2023-04-10T13:32:17.594Z,3.33
2023-04-10T13:33:19.143Z,3.17
2023-04-10T13:34:21.885Z,3.25
2023-04-10T13:35:23.476Z,3.25
2023-04-10T13:36:25.157Z,3.38
2023-04-10T13:37:26.854Z,3.83
2023-04-10T13:38:28.376Z,3.45
2023-04-10T13:39:31.573Z,3.42
2023-04-10T13:40:33.373Z,2.90
2023-04-10T13:41:34.926Z,3.55
2023-04-10T13:42:39.296Z,2.95
2023-04-10T13:43:42.204Z,2.92
2023-04-10T13:44:43.795Z,2.92
2023-04-10T13:45:45.335Z,3.00
2023-04-10T13:46:46.902Z,2.92
2023-04-10T13:47:48.702Z,2.92
2023-04-10T13:48:50.834Z,3.05
2023-04-10T13:49:52.469Z,2.97
2023-04-10T13:50:54.202Z,2.92
2023-04-10T13:51:56.730Z,3.10
2023-04-10T13:52:58.304Z,3.30
2023-04-10T13:54:00.024Z,3.10
2023-04-10T13:55:01.703Z,3.15
2023-04-10T13:56:03.425Z,2.85
2023-04-10T13:57:05.088Z,3.33
2023-04-10T13:58:07.127Z,2.85
2023-04-10T13:59:11.185Z,3.20
2023-04-10T14:00:13.321Z,2.83
2023-04-10T14:01:14.954Z,3.45
2023-04-10T14:02:19.734Z,3.45
2023-04-10T14:03:22.056Z,3.10
2023-04-10T14:04:24.169Z,3.13
2023-04-10T14:05:27.848Z,2.90
2023-04-10T14:06:29.395Z,2.65
2023-04-10T14:07:37.305Z,2.97
2023-04-10T14:08:40.196Z,3.00